createdAt,value
2022-10-21T04:02:54.538Z,1.00
2022-10-21T04:05:22.563Z,1.00
2022-10-21T04:07:53.023Z,1.00
2022-10-21T04:10:22.037Z,1.00
2022-10-21T04:12:50.051Z,1.00
2022-10-21T04:15:18.331Z,1.00
2022-10-21T04:17:47.717Z,1.00
2022-10-21T04:20:17.050Z,1.00
2022-10-21T04:22:45.014Z,1.00
2022-10-21T04:25:13.206Z,1.00
2022-10-21T04:27:41.191Z,1.00
2022-10-21T04:30:10.686Z,1.00
2022-10-21T04:32:38.901Z,1.00
2022-10-21T04:35:08.109Z,1.00
2022-10-21T04:37:40.039Z,1.00
2022-10-21T04:40:10.355Z,1.00
2022-10-21T04:42:38.313Z,1.00
2022-10-21T04:45:07.468Z,1.00
2022-10-21T04:47:35.523Z,1.00
2022-10-21T04:50:03.743Z,1.00
2022-10-21T04:52:31.773Z,1.00
2022-10-21T04:55:01.125Z,1.00
2022-10-21T04:57:29.089Z,1.00
2022-10-21T04:59:57.124Z,1.00
2022-10-21T05:02:25.730Z,1.00
2022-10-21T05:04:53.825Z,1.00
2022-10-21T05:07:22.629Z,1.00
2022-10-21T05:09:50.611Z,1.00
2022-10-21T05:12:22.021Z,1.00
2022-10-21T05:14:50.053Z,1.00
2022-10-21T05:17:18.041Z,1.00
2022-10-21T05:19:46.015Z,1.00
2022-10-21T05:22:14.077Z,1.00
2022-10-21T05:24:42.060Z,1.00
2022-10-21T05:27:10.116Z,1.00
2022-10-21T05:29:39.556Z,1.00
2022-10-21T05:32:07.541Z,1.00
2022-10-21T05:34:35.513Z,1.00
2022-10-21T05:37:03.505Z,1.00
2022-10-21T05:39:31.495Z,1.00
2022-10-21T05:41:59.497Z,1.00
2022-10-21T05:44:27.440Z,1.00
2022-10-21T05:46:56.818Z,1.00
2022-10-21T05:49:24.863Z,1.00
2022-10-21T05:51:52.859Z,1.00
2022-10-21T05:54:21.055Z,1.00
2022-10-21T05:56:49.121Z,1.00
2022-10-21T05:59:17.332Z,1.00
2022-10-21T06:01:45.328Z,1.00
2022-10-21T06:04:14.912Z,1.00
2022-10-21T06:06:42.940Z,1.00
2022-10-21T06:09:11.110Z,1.00
2022-10-21T06:11:39.276Z,1.00
2022-10-21T06:14:07.377Z,1.00
2022-10-21T06:16:36.026Z,1.00
2022-10-21T06:19:04.609Z,1.00
2022-10-21T06:21:36.456Z,1.00
2022-10-21T06:24:04.694Z,1.00
2022-10-21T06:26:36.055Z,1.00
2022-10-21T06:29:05.137Z,1.00
2022-10-21T06:31:33.121Z,1.00
2022-10-21T06:34:01.076Z,1.00
2022-10-21T06:36:29.556Z,1.00
2022-10-21T06:38:58.927Z,1.00
2022-10-21T06:41:27.011Z,1.00
2022-10-21T06:43:55.067Z,1.00
2022-10-21T06:46:23.202Z,1.00
2022-10-21T06:48:51.159Z,1.00
2022-10-21T06:51:22.923Z,1.00
2022-10-21T06:53:54.992Z,1.00
2022-10-21T06:56:25.845Z,1.00
2022-10-21T06:58:54.368Z,1.00
2022-10-21T07:01:34.846Z,1.00
2022-10-21T07:04:10.382Z,1.00
2022-10-21T07:06:38.556Z,1.00
2022-10-21T07:09:08.877Z,1.00
2022-10-21T07:11:38.443Z,1.00
2022-10-21T07:14:07.430Z,1.00
2022-10-21T07:16:37.722Z,1.00
2022-10-21T07:19:06.373Z,1.00
2022-10-21T07:21:34.686Z,1.00
2022-10-21T07:24:02.965Z,1.00
2022-10-21T07:26:34.433Z,1.00
2022-10-21T07:29:04.874Z,1.00
2022-10-21T07:31:36.374Z,1.00
2022-10-21T07:34:08.086Z,1.00
2022-10-21T07:36:39.465Z,1.00
2022-10-21T07:39:12.057Z,1.00
2022-10-21T07:41:43.088Z,1.00
2022-10-21T07:44:13.143Z,1.00
2022-10-21T07:46:43.106Z,1.00
2022-10-21T07:49:13.320Z,1.00
2022-10-21T07:51:42.245Z,1.00
2022-10-21T07:54:10.721Z,1.00
2022-10-21T07:56:43.382Z,1.00
2022-10-21T07:59:14.316Z,1.00
2022-10-21T08:01:45.881Z,1.00
2022-10-21T08:04:16.827Z,1.00
2022-10-21T08:06:45.752Z,1.00
2022-10-21T08:09:14.975Z,1.00
2022-10-21T08:11:43.123Z,1.00
2022-10-21T08:14:12.922Z,1.00
2022-10-21T08:16:42.567Z,1.00
2022-10-21T08:19:19.359Z,1.00
2022-10-21T08:21:47.775Z,1.00
2022-10-21T08:24:15.795Z,1.00
2022-10-21T08:26:44.760Z,1.00
2022-10-21T08:29:14.074Z,1.00
2022-10-21T08:31:42.752Z,1.00
2022-10-21T08:34:10.906Z,1.00
2022-10-21T08:36:39.932Z,1.00
2022-10-21T08:39:08.598Z,1.00
2022-10-21T08:42:03.401Z,1.00
2022-10-21T08:44:46.933Z,1.00
2022-10-21T08:47:33.913Z,1.00
2022-10-21T08:50:06.002Z,1.00
2022-10-21T08:52:43.448Z,1.00
2022-10-21T08:55:20.707Z,1.00
2022-10-21T08:57:50.659Z,1.00
2022-10-21T09:00:25.911Z,1.00
2022-10-21T09:03:17.723Z,1.00
2022-10-21T09:06:19.211Z,1.00
2022-10-21T09:09:10.103Z,1.00
2022-10-21T09:11:54.075Z,1.00
2022-10-21T09:14:58.493Z,1.00
2022-10-21T09:17:53.335Z,1.00
2022-10-21T09:20:39.866Z,1.00
2022-10-21T09:26:18.319Z,1.00
2022-10-21T09:28:48.590Z,1.00
2022-10-21T09:31:21.449Z,1.00
2022-10-21T09:33:59.209Z,1.00
2022-10-21T09:36:34.668Z,1.00
2022-10-21T09:39:09.333Z,1.00
2022-10-21T09:41:45.034Z,1.00
2022-10-21T09:44:18.779Z,1.00
2022-10-21T09:46:47.873Z,1.00
2022-10-21T09:50:01.668Z,1.00
2022-10-21T09:52:22.257Z,1.00
2022-10-21T09:54:50.998Z,1.00
2022-10-21T09:57:29.832Z,1.00
2022-10-21T10:00:02.286Z,1.00
2022-10-21T10:02:38.185Z,1.00
2022-10-21T10:05:36.257Z,1.00
2022-10-21T10:08:30.202Z,1.00
2022-10-21T10:11:21.634Z,1.00
2022-10-21T10:14:32.684Z,1.00
2022-10-21T10:17:29.837Z,1.00
2022-10-21T10:20:26.368Z,1.00
2022-10-21T10:23:19.898Z,1.00
2022-10-21T10:25:52.976Z,1.00
2022-10-21T10:28:26.554Z,1.00
2022-10-21T10:30:57.937Z,1.00
2022-10-21T10:33:30.229Z,1.00
2022-10-21T10:36:05.429Z,1.00
2022-10-21T10:38:41.119Z,1.00
2022-10-21T10:41:12.290Z,1.00
2022-10-21T10:43:47.848Z,1.00
2022-10-21T10:46:26.296Z,1.00
2022-10-21T10:48:57.000Z,1.00
2022-10-21T10:51:29.788Z,1.00
2022-10-21T10:54:16.678Z,1.00
2022-10-21T10:56:54.143Z,1.00
2022-10-21T10:59:40.932Z,1.00
2022-10-21T11:02:32.549Z,1.00
2022-10-21T11:05:18.521Z,1.00
2022-10-21T11:07:51.865Z,1.00
2022-10-21T11:10:45.815Z,1.00
2022-10-21T11:13:17.579Z,1.00
2022-10-21T11:16:11.147Z,1.00
2022-10-21T11:18:50.098Z,1.00
2022-10-21T11:21:43.505Z,1.00
2022-10-21T11:24:50.975Z,1.00
2022-10-21T11:27:37.494Z,1.00
2022-10-21T11:30:14.003Z,1.00
2022-10-21T11:33:05.398Z,1.00
2022-10-21T11:35:58.038Z,1.00
2022-10-21T11:38:49.155Z,1.00
2022-10-21T11:47:00.246Z,1.00
2022-10-21T11:49:50.555Z,1.00
2022-10-21T11:52:34.987Z,1.00
2022-10-21T11:55:35.177Z,1.00
2022-10-21T11:58:25.757Z,1.00
2022-10-21T12:01:11.182Z,1.00
2022-10-21T12:04:04.275Z,1.00
2022-10-21T12:09:14.420Z,1.00
2022-10-21T12:11:50.630Z,1.00
2022-10-21T12:14:31.272Z,1.00
2022-10-21T12:17:06.674Z,1.00
2022-10-21T12:22:05.042Z,1.00
2022-10-21T12:24:48.479Z,1.00
2022-10-21T12:27:27.877Z,1.00
2022-10-21T12:30:13.883Z,1.00
2022-10-21T12:32:54.002Z,1.00
2022-10-21T12:35:29.668Z,1.00
2022-10-21T12:38:22.255Z,1.00
2022-10-21T12:40:52.105Z,1.00
2022-10-21T12:43:28.420Z,1.00
2022-10-21T12:46:10.217Z,1.00
2022-10-21T12:48:44.573Z,1.00
2022-10-21T12:51:25.091Z,1.00
2022-10-21T12:53:58.528Z,1.00
2022-10-21T12:56:32.967Z,1.00
2022-10-21T12:59:04.965Z,1.00
2022-10-21T13:04:57.274Z,1.00
2022-10-21T13:07:39.483Z,1.00
2022-10-21T13:10:27.367Z,1.00
2022-10-21T13:13:34.419Z,1.00
2022-10-21T13:16:36.804Z,1.00
2022-10-21T13:19:34.243Z,1.00
2022-10-21T13:22:10.953Z,1.00
2022-10-21T13:24:40.363Z,1.00
2022-10-21T13:27:29.116Z,1.00
2022-10-21T13:29:58.677Z,1.00
2022-10-21T13:32:33.323Z,1.00
2022-10-21T13:35:31.820Z,1.00
2022-10-21T13:38:04.866Z,1.00
2022-10-21T13:40:46.024Z,1.00
2022-10-21T13:43:18.268Z,1.00
2022-10-21T13:45:52.045Z,1.00
2022-10-21T13:48:25.523Z,1.00
2022-10-21T13:50:55.717Z,1.00
2022-10-21T13:53:29.453Z,1.00
2022-10-21T13:56:01.631Z,1.00
2022-10-21T13:58:36.046Z,1.00
2022-10-21T14:01:13.412Z,1.00
2022-10-21T14:03:42.281Z,1.00
2022-10-21T14:06:17.219Z,1.00
2022-10-21T14:08:48.526Z,1.00
2022-10-21T14:11:21.847Z,1.00
2022-10-21T14:13:52.294Z,1.00
2022-10-21T14:16:28.904Z,1.00
2022-10-21T14:18:57.355Z,1.00
2022-10-21T14:21:30.395Z,1.00
2022-10-21T14:23:58.867Z,1.00
2022-10-21T14:26:30.896Z,1.00
2022-10-21T14:29:01.867Z,1.00
2022-10-21T14:31:30.672Z,1.00
2022-10-21T14:33:58.881Z,1.00
2022-10-21T14:36:30.088Z,1.00
2022-10-21T14:39:01.460Z,1.00
2022-10-21T14:41:35.259Z,1.00
2022-10-21T14:44:13.847Z,1.00
2022-10-21T14:46:45.015Z,1.00
2022-10-21T14:49:24.939Z,1.00
2022-10-21T14:52:02.645Z,1.00
2022-10-21T14:54:42.240Z,1.00
2022-10-21T14:57:31.143Z,1.00
2022-10-21T15:00:01.885Z,1.00
2022-10-21T15:02:34.535Z,1.00
2022-10-21T15:05:05.566Z,1.00
2022-10-21T15:07:38.153Z,1.00
2022-10-21T15:10:18.439Z,1.00
2022-10-21T15:12:50.219Z,1.00
2022-10-21T15:15:44.508Z,1.00
2022-10-21T15:18:19.892Z,1.00
2022-10-21T15:20:58.160Z,1.00
2022-10-21T15:23:33.410Z,1.00
2022-10-21T15:28:36.510Z,1.00
2022-10-21T15:33:36.966Z,1.00
2022-10-21T15:36:09.244Z,1.00
2022-10-21T15:38:44.525Z,1.00
2022-10-21T15:41:16.844Z,1.00
2022-10-21T15:43:52.973Z,1.00
2022-10-21T15:46:21.099Z,1.00
2022-10-21T15:48:49.091Z,1.00
2022-10-21T15:51:17.024Z,1.00
2022-10-21T15:53:46.358Z,1.00
2022-10-21T15:56:16.290Z,1.00
2022-10-21T15:58:44.459Z,1.00
2022-10-21T16:01:15.432Z,1.00
2022-10-21T16:03:44.595Z,1.00
2022-10-21T16:06:16.921Z,1.00
2022-10-21T16:08:46.553Z,1.00
2022-10-21T16:11:25.518Z,1.00
2022-10-21T16:14:22.729Z,1.00
2022-10-21T16:16:58.280Z,1.00
2022-10-21T16:19:26.351Z,1.00
2022-10-21T16:21:54.297Z,1.00
2022-10-21T16:24:23.899Z,1.00
2022-10-21T16:26:52.006Z,1.00
2022-10-21T16:29:23.289Z,1.00
2022-10-21T16:31:52.025Z,1.00
2022-10-21T16:34:20.833Z,1.00
2022-10-21T16:36:49.044Z,1.00
2022-10-21T16:39:19.291Z,1.00
2022-10-21T16:41:48.707Z,1.00
2022-10-21T16:44:16.955Z,1.00
2022-10-21T16:46:51.107Z,1.00
2022-10-21T16:49:24.136Z,1.00
2022-10-21T16:51:53.517Z,1.00
2022-10-21T16:54:23.547Z,1.00
2022-10-21T16:56:55.103Z,1.00
2022-10-21T16:59:24.009Z,1.00
2022-10-21T17:01:52.188Z,1.00
2022-10-21T17:04:20.211Z,1.00
2022-10-21T17:06:49.096Z,1.00
2022-10-21T17:09:17.432Z,1.00
2022-10-21T17:11:45.468Z,1.00
2022-10-21T17:14:18.959Z,1.00
2022-10-21T17:16:47.639Z,1.00
2022-10-21T17:19:16.425Z,1.00
2022-10-21T17:21:45.188Z,1.00
2022-10-21T17:24:17.550Z,1.00
2022-10-21T17:26:46.250Z,1.00
2022-10-21T17:29:15.671Z,1.00
2022-10-21T17:31:44.845Z,1.00
2022-10-21T17:34:27.415Z,1.00
2022-10-21T17:36:55.794Z,1.00
2022-10-21T17:39:24.333Z,1.00
2022-10-21T17:41:52.514Z,1.00
2022-10-21T17:44:22.566Z,1.00
2022-10-21T17:46:54.322Z,1.00
2022-10-21T17:49:22.855Z,1.00
2022-10-21T17:51:51.110Z,1.00
2022-10-21T17:54:22.939Z,1.00
2022-10-21T17:56:54.725Z,1.00
2022-10-21T17:59:24.160Z,1.00
2022-10-21T18:01:52.291Z,1.00
2022-10-21T18:04:20.327Z,1.00
2022-10-21T18:06:48.341Z,1.00
2022-10-21T18:09:16.540Z,1.00
2022-10-21T18:11:45.055Z,1.00
2022-10-21T18:14:14.226Z,1.00
2022-10-21T18:16:43.633Z,1.00
2022-10-21T18:19:12.032Z,1.00
2022-10-21T18:21:40.378Z,1.00
2022-10-21T18:24:12.232Z,1.00
2022-10-21T18:26:42.068Z,1.00
2022-10-21T18:29:10.033Z,1.00
2022-10-21T18:31:39.490Z,1.00
2022-10-21T18:34:09.577Z,1.00
2022-10-21T18:36:37.790Z,1.00
2022-10-21T18:39:06.638Z,1.00
2022-10-21T18:41:35.164Z,1.00
2022-10-21T18:44:08.368Z,1.00
2022-10-21T18:46:37.012Z,1.00
2022-10-21T18:49:08.865Z,1.00
2022-10-21T18:51:36.909Z,1.00
2022-10-21T18:54:05.189Z,1.00
2022-10-21T18:56:33.436Z,1.00
2022-10-21T18:59:01.483Z,1.00
2022-10-21T19:01:29.642Z,3.60
2022-10-21T19:03:57.777Z,8.10
2022-10-21T19:06:38.564Z,13.20
2022-10-21T19:09:11.319Z,16.10
2022-10-21T19:11:42.131Z,12.70
2022-10-21T19:14:13.860Z,18.50
2022-10-21T19:16:43.185Z,20.80
2022-10-21T19:19:14.170Z,23.70
2022-10-21T19:21:45.951Z,21.90
2022-10-21T19:24:14.269Z,36.50
2022-10-21T19:26:44.778Z,31.80
2022-10-21T19:29:16.521Z,33.00
2022-10-21T19:34:17.088Z,38.40
2022-10-21T19:36:46.773Z,41.80
2022-10-21T19:39:15.621Z,41.70
2022-10-21T19:41:44.197Z,44.30
2022-10-21T19:44:12.317Z,43.70
2022-10-21T19:46:40.389Z,39.90
2022-10-21T19:49:11.128Z,41.70
2022-10-21T19:51:39.439Z,41.40
2022-10-21T19:54:11.767Z,42.20
2022-10-21T19:56:39.939Z,42.10
2022-10-21T19:59:09.668Z,46.80
2022-10-21T20:01:38.039Z,50.20
2022-10-21T20:04:07.560Z,54.60
2022-10-21T20:06:37.842Z,56.00
2022-10-21T20:09:10.058Z,57.30
2022-10-21T20:11:39.264Z,59.10
2022-10-21T20:14:07.894Z,63.30
2022-10-21T20:16:41.850Z,63.10
2022-10-21T20:19:12.418Z,61.70
2022-10-21T20:21:40.573Z,59.40
2022-10-21T20:24:11.787Z,61.70
2022-10-21T20:29:13.200Z,63.20
2022-10-21T20:31:41.197Z,61.80
2022-10-21T20:34:11.211Z,64.80
2022-10-21T20:36:39.238Z,68.20
2022-10-21T20:39:10.277Z,66.00
2022-10-21T20:41:38.860Z,65.80
2022-10-21T20:44:12.904Z,63.90
2022-10-21T20:46:40.900Z,61.20
2022-10-21T20:49:10.086Z,60.90
2022-10-21T20:51:42.044Z,59.50
2022-10-21T20:54:16.371Z,59.90
2022-10-21T20:56:45.656Z,60.30
2022-10-21T20:59:16.133Z,59.10
